sensor_id;sensor_type;location;lat;lon;timestamp;pressure;altitude;pressure_sealevel;temperature;humidity
57606;BME280;43430;48.204;11.556;2023-03-14T00:00:09;94532.28;;;9.75;100.00
57606;BME280;43430;48.204;11.556;2023-03-14T00:02:37;94540.16;;;9.75;100.00
57606;BME280;43430;48.204;11.556;2023-03-14T00:05:03;94533.59;;;9.78;100.00
57606;BME280;43430;48.204;11.556;2023-03-14T00:07:36;94526.00;;;9.81;100.00
57606;BME280;43430;48.204;11.556;2023-03-14T00:10:09;94518.84;;;9.77;100.00
57606;BME280;43430;48.204;11.556;2023-03-14T00:12:35;94512.72;;;9.66;100.00
57606;BME280;43430;48.204;11.556;2023-03-14T00:15:00;94508.72;;;9.63;100.00
57606;BME280;43430;48.204;11.556;2023-03-14T00:17:28;94506.34;;;9.57;100.00
57606;BME280;43430;48.204;11.556;2023-03-14T00:19:54;94511.06;;;9.60;100.00
57606;BME280;43430;48.204;11.556;2023-03-14T00:22:20;94512.63;;;9.56;100.00
57606;BME280;43430;48.204;11.556;2023-03-14T00:24:45;94534.22;;;9.58;100.00
57606;BME280;43430;48.204;11.556;2023-03-14T00:27:10;94530.31;;;9.60;100.00
57606;BME280;43430;48.204;11.556;2023-03-14T00:29:36;94528.72;;;9.59;100.00
57606;BME280;43430;48.204;11.556;2023-03-14T00:32:01;94519.22;;;9.58;100.00
57606;BME280;43430;48.204;11.556;2023-03-14T00:34:31;94490.56;;;9.62;100.00
57606;BME280;43430;48.204;11.556;2023-03-14T00:36:57;94490.88;;;9.65;100.00
57606;BME280;43430;48.204;11.556;2023-03-14T00:39:22;94493.22;;;9.62;100.00
57606;BME280;43430;48.204;11.556;2023-03-14T00:41:47;94492.94;;;9.63;100.00
57606;BME280;43430;48.204;11.556;2023-03-14T00:44:13;94514.00;;;9.63;100.00
57606;BME280;43430;48.204;11.556;2023-03-14T00:46:38;94515.34;;;9.66;100.00
57606;BME280;43430;48.204;11.556;2023-03-14T00:49:04;94527.72;;;9.65;100.00
57606;BME280;43430;48.204;11.556;2023-03-14T00:51:29;94547.19;;;9.64;100.00
57606;BME280;43430;48.204;11.556;2023-03-14T00:53:54;94545.94;;;9.72;100.00
57606;BME280;43430;48.204;11.556;2023-03-14T00:56:20;94541.44;;;9.72;100.00
57606;BME280;43430;48.204;11.556;2023-03-14T00:58:45;94539.31;;;9.69;100.00
57606;BME280;43430;48.204;11.556;2023-03-14T01:01:14;94541.44;;;9.67;100.00
57606;BME280;43430;48.204;11.556;2023-03-14T01:03:40;94546.09;;;9.60;100.00
57606;BME280;43430;48.204;11.556;2023-03-14T01:06:17;94555.78;;;9.55;100.00
57606;BME280;43430;48.204;11.556;2023-03-14T01:08:43;94550.53;;;9.60;100.00
57606;BME280;43430;48.204;11.556;2023-03-14T01:11:11;94559.19;;;9.55;100.00
57606;BME280;43430;48.204;11.556;2023-03-14T01:13:37;94580.75;;;9.52;100.00
57606;BME280;43430;48.204;11.556;2023-03-14T01:16:05;94587.00;;;9.46;100.00
57606;BME280;43430;48.204;11.556;2023-03-14T01:18:31;94599.31;;;9.40;100.00
57606;BME280;43430;48.204;11.556;2023-03-14T01:20:59;94602.97;;;9.39;100.00
57606;BME280;43430;48.204;11.556;2023-03-14T01:23:25;94613.91;;;9.26;100.00
57606;BME280;43430;48.204;11.556;2023-03-14T01:25:50;94626.06;;;9.10;100.00
57606;BME280;43430;48.204;11.556;2023-03-14T01:28:15;94630.06;;;9.13;100.00
57606;BME280;43430;48.204;11.556;2023-03-14T01:30:41;94640.50;;;9.08;100.00
57606;BME280;43430;48.204;11.556;2023-03-14T01:33:06;94652.44;;;8.93;100.00
57606;BME280;43430;48.204;11.556;2023-03-14T01:35:32;94656.94;;;8.76;100.00
57606;BME280;43430;48.204;11.556;2023-03-14T01:37:57;94670.25;;;8.69;100.00
57606;BME280;43430;48.204;11.556;2023-03-14T01:40:22;94686.44;;;8.61;100.00
57606;BME280;43430;48.204;11.556;2023-03-14T01:43:12;94695.00;;;8.56;100.00
57606;BME280;43430;48.204;11.556;2023-03-14T01:48:44;94703.94;;;8.39;100.00
57606;BME280;43430;48.204;11.556;2023-03-14T01:51:40;94712.97;;;8.31;100.00
57606;BME280;43430;48.204;11.556;2023-03-14T01:54:16;94714.72;;;8.25;100.00
57606;BME280;43430;48.204;11.556;2023-03-14T01:56:46;94721.59;;;8.26;100.00
57606;BME280;43430;48.204;11.556;2023-03-14T01:59:13;94726.59;;;8.28;100.00
57606;BME280;43430;48.204;11.556;2023-03-14T02:01:41;94739.06;;;8.21;100.00
57606;BME280;43430;48.204;11.556;2023-03-14T02:04:08;94734.53;;;8.16;100.00
57606;BME280;43430;48.204;11.556;2023-03-14T02:06:56;94732.06;;;8.09;100.00
57606;BME280;43430;48.204;11.556;2023-03-14T02:09:22;94737.69;;;8.01;100.00
57606;BME280;43430;48.204;11.556;2023-03-14T02:11:49;94731.41;;;8.02;100.00
57606;BME280;43430;48.204;11.556;2023-03-14T02:14:25;94731.31;;;7.97;100.00
57606;BME280;43430;48.204;11.556;2023-03-14T02:16:53;94711.81;;;7.93;100.00
57606;BME280;43430;48.204;11.556;2023-03-14T02:19:25;94717.22;;;7.87;100.00
57606;BME280;43430;48.204;11.556;2023-03-14T02:22:05;94716.47;;;7.74;100.00
57606;BME280;43430;48.204;11.556;2023-03-14T02:27:18;94692.25;;;7.55;100.00
57606;BME280;43430;48.204;11.556;2023-03-14T02:29:54;94663.22;;;7.45;100.00
57606;BME280;43430;48.204;11.556;2023-03-14T02:32:22;94648.97;;;7.41;100.00
57606;BME280;43430;48.204;11.556;2023-03-14T02:34:53;94635.06;;;7.41;100.00
57606;BME280;43430;48.204;11.556;2023-03-14T02:37:20;94611.22;;;7.42;100.00
57606;BME280;43430;48.204;11.556;2023-03-14T02:39:48;94599.16;;;7.41;100.00
57606;BME280;43430;48.204;11.556;2023-03-14T02:42:14;94581.25;;;7.38;100.00
57606;BME280;43430;48.204;11.556;2023-03-14T02:44:55;94577.19;;;7.30;100.00
57606;BME280;43430;48.204;11.556;2023-03-14T02:47:29;94572.75;;;7.31;100.00
57606;BME280;43430;48.204;11.556;2023-03-14T02:50:00;94568.53;;;7.30;100.00
57606;BME280;43430;48.204;11.556;2023-03-14T02:52:27;94565.94;;;7.30;100.00
57606;BME280;43430;48.204;11.556;2023-03-14T02:54:52;94551.53;;;7.32;100.00
57606;BME280;43430;48.204;11.556;2023-03-14T02:57:17;94561.31;;;7.37;100.00
57606;BME280;43430;48.204;11.556;2023-03-14T02:59:43;94565.13;;;7.46;100.00
57606;BME280;43430;48.204;11.556;2023-03-14T03:02:08;94564.59;;;7.44;100.00
57606;BME280;43430;48.204;11.556;2023-03-14T03:04:33;94577.09;;;7.54;100.00
57606;BME280;43430;48.204;11.556;2023-03-14T03:06:59;94575.47;;;7.53;100.00
57606;BME280;43430;48.204;11.556;2023-03-14T03:09:24;94582.66;;;7.57;100.00
57606;BME280;43430;48.204;11.556;2023-03-14T03:11:49;94583.13;;;7.54;100.00
57606;BME280;43430;48.204;11.556;2023-03-14T03:14:14;94573.44;;;7.55;100.00
57606;BME280;43430;48.204;11.556;2023-03-14T03:16:40;94569.75;;;7.56;100.00
57606;BME280;43430;48.204;11.556;2023-03-14T03:19:05;94564.03;;;7.59;100.00
57606;BME280;43430;48.204;11.556;2023-03-14T03:21:30;94566.66;;;7.59;100.00
57606;BME280;43430;48.204;11.556;2023-03-14T03:23:56;94555.84;;;7.55;100.00
57606;BME280;43430;48.204;11.556;2023-03-14T03:26:21;94542.09;;;7.48;100.00
57606;BME280;43430;48.204;11.556;2023-03-14T03:28:47;94554.66;;;7.46;100.00
57606;BME280;43430;48.204;11.556;2023-03-14T03:31:12;94542.09;;;7.48;100.00
57606;BME280;43430;48.204;11.556;2023-03-14T03:33:38;94536.84;;;7.48;100.00
57606;BME280;43430;48.204;11.556;2023-03-14T03:36:03;94538.91;;;7.46;100.00
57606;BME280;43430;48.204;11.556;2023-03-14T03:38:29;94521.59;;;7.45;100.00
57606;BME280;43430;48.204;11.556;2023-03-14T03:40:54;94520.56;;;7.46;100.00
57606;BME280;43430;48.204;11.556;2023-03-14T03:43:20;94525.00;;;7.46;100.00
57606;BME280;43430;48.204;11.556;2023-03-14T03:45:45;94517.84;;;7.41;100.00
57606;BME280;43430;48.204;11.556;2023-03-14T03:48:10;94516.81;;;7.42;100.00
57606;BME280;43430;48.204;11.556;2023-03-14T03:50:36;94522.63;;;7.44;100.00
57606;BME280;43430;48.204;11.556;2023-03-14T03:53:01;94516.03;;;7.42;100.00
57606;BME280;43430;48.204;11.556;2023-03-14T03:55:26;94519.06;;;7.33;100.00
57606;BME280;43430;48.204;11.556;2023-03-14T03:57:53;94519.75;;;7.29;100.00
57606;BME280;43430;48.204;11.556;2023-03-14T04:00:19;94508.41;;;7.23;100.00
57606;BME280;43430;48.204;11.556;2023-03-14T04:02:44;94508.16;;;7.25;100.00
57606;BME280;43430;48.204;11.556;2023-03-14T04:05:09;94503.00;;;7.30;100.00
57606;BME280;43430;48.204;11.556;2023-03-14T04:07:35;94507.94;;;7.26;100.00
57606;BME280;43430;48.204;11.556;2023-03-14T04:10:00;94495.81;;;7.25;100.00
57606;BME280;43430;48.204;11.556;2023-03-14T04:12:25;94486.38;;;7.24;100.00
57606;BME280;43430;48.204;11.556;2023-03-14T04:14:51;94492.34;;;7.20;100.00
57606;BME280;43430;48.204;11.556;2023-03-14T04:17:16;94492.34;;;7.20;100.00
57606;BME280;43430;48.204;11.556;2023-03-14T04:19:42;94486.13;;;7.26;100.00
57606;BME280;43430;48.204;11.556;2023-03-14T04:22:08;94479.78;;;7.22;100.00
57606;BME280;43430;48.204;11.556;2023-03-14T04:24:34;94468.75;;;7.20;100.00
57606;BME280;43430;48.204;11.556;2023-03-14T04:26:59;94471.28;;;7.14;100.00
57606;BME280;43430;48.204;11.556;2023-03-14T04:29:24;94458.16;;;7.14;100.00
57606;BME280;43430;48.204;11.556;2023-03-14T04:31:50;94466.59;;;7.17;100.00
57606;BME280;43430;48.204;11.556;2023-03-14T04:34:15;94461.84;;;7.13;100.00
57606;BME280;43430;48.204;11.556;2023-03-14T04:36:40;94461.84;;;7.13;100.00
57606;BME280;43430;48.204;11.556;2023-03-14T04:39:05;94457.63;;;7.12;100.00
57606;BME280;43430;48.204;11.556;2023-03-14T04:41:31;94450.56;;;7.13;100.00
57606;BME280;43430;48.204;11.556;2023-03-14T04:43:57;94451.09;;;7.15;100.00
57606;BME280;43430;48.204;11.556;2023-03-14T04:46:22;94448.72;;;7.13;100.00
57606;BME280;43430;48.204;11.556;2023-03-14T04:48:48;94450.88;;;7.17;100.00
57606;BME280;43430;48.204;11.556;2023-03-14T04:51:13;94449.25;;;7.16;100.00
57606;BME280;43430;48.204;11.556;2023-03-14T04:53:38;94434.81;;;7.13;100.00
57606;BME280;43430;48.204;11.556;2023-03-14T04:56:04;94429.91;;;7.17;100.00
57606;BME280;43430;48.204;11.556;2023-03-14T04:58:30;94414.19;;;7.17;100.00
57606;BME280;43430;48.204;11.556;2023-03-14T05:00:55;94405.28;;;7.18;100.00
57606;BME280;43430;48.204;11.556;2023-03-14T05:03:20;94371.75;;;7.20;100.00
57606;BME280;43430;48.204;11.556;2023-03-14T05:05:46;94385.88;;;7.19;100.00
57606;BME280;43430;48.204;11.556;2023-03-14T05:08:12;94377.22;;;7.18;100.00
57606;BME280;43430;48.204;11.556;2023-03-14T05:10:37;94392.72;;;7.20;100.00
57606;BME280;43430;48.204;11.556;2023-03-14T05:13:03;94402.09;;;7.16;100.00
57606;BME280;43430;48.204;11.556;2023-03-14T05:15:28;94394.56;;;7.19;100.00
57606;BME280;43430;48.204;11.556;2023-03-14T05:17:54;94395.34;;;7.20;100.00
57606;BME280;43430;48.204;11.556;2023-03-14T05:20:22;94391.59;;;7.16;100.00
57606;BME280;43430;48.204;11.556;2023-03-14T05:22:47;94387.50;;;7.20;100.00
57606;BME280;43430;48.204;11.556;2023-03-14T05:25:13;94383.72;;;7.16;100.00
57606;BME280;43430;48.204;11.556;2023-03-14T05:27:38;94381.38;;;7.14;100.00
57606;BME280;43430;48.204;11.556;2023-03-14T05:30:05;94390.75;;;7.10;100.00
57606;BME280;43430;48.204;11.556;2023-03-14T05:32:31;94394.16;;;7.10;100.00
57606;BME280;43430;48.204;11.556;2023-03-14T05:34:56;94397.88;;;7.14;100.00
57606;BME280;43430;48.204;11.556;2023-03-14T05:37:25;94396.84;;;7.16;100.00
57606;BME280;43430;48.204;11.556;2023-03-14T05:39:50;94393.22;;;7.17;100.00
57606;BME280;43430;48.204;11.556;2023-03-14T05:42:16;94397.34;;;7.12;100.00
57606;BME280;43430;48.204;11.556;2023-03-14T05:44:41;94396.22;;;7.08;100.00
57606;BME280;43430;48.204;11.556;2023-03-14T05:47:06;94386.53;;;7.09;100.00
57606;BME280;43430;48.204;11.556;2023-03-14T05:49:32;94386.84;;;7.12;100.00
57606;BME280;43430;48.204;11.556;2023-03-14T05:51:57;94388.19;;;7.15;100.00
57606;BME280;43430;48.204;11.556;2023-03-14T05:54:22;94382.41;;;7.13;100.00
57606;BME280;43430;48.204;11.556;2023-03-14T05:56:48;94380.78;;;7.12;100.00
57606;BME280;43430;48.204;11.556;2023-03-14T05:59:13;94377.78;;;7.20;100.00
57606;BME280;43430;48.204;11.556;2023-03-14T06:01:40;94380.16;;;7.22;100.00
57606;BME280;43430;48.204;11.556;2023-03-14T06:04:05;94369.13;;;7.20;100.00
57606;BME280;43430;48.204;11.556;2023-03-14T06:06:30;94367.78;;;7.17;100.00
57606;BME280;43430;48.204;11.556;2023-03-14T06:08:56;94363.91;;;7.20;100.00
57606;BME280;43430;48.204;11.556;2023-03-14T06:11:21;94363.16;;;7.24;100.00
57606;BME280;43430;48.204;11.556;2023-03-14T06:13:46;94355.88;;;7.26;100.00
57606;BME280;43430;48.204;11.556;2023-03-14T06:16:12;94358.56;;;7.31;100.00
57606;BME280;43430;48.204;11.556;2023-03-14T06:18:38;94352.34;;;7.37;100.00
57606;BME280;43430;48.204;11.556;2023-03-14T06:21:03;94354.19;;;7.37;100.00
57606;BME280;43430;48.204;11.556;2023-03-14T06:23:29;94350.78;;;7.36;100.00
57606;BME280;43430;48.204;11.556;2023-03-14T06:25:55;94362.06;;;7.37;100.00
57606;BME280;43430;48.204;11.556;2023-03-14T06:28:21;94352.09;;;7.39;100.00
57606;BME280;43430;48.204;11.556;2023-03-14T06:30:46;94344.06;;;7.46;100.00
57606;BME280;43430;48.204;11.556;2023-03-14T06:33:11;94335.97;;;7.47;100.00
57606;BME280;43430;48.204;11.556;2023-03-14T06:35:37;94330.25;;;7.50;100.00
57606;BME280;43430;48.204;11.556;2023-03-14T06:38:02;94323.78;;;7.58;100.00
57606;BME280;43430;48.204;11.556;2023-03-14T06:40:28;94314.63;;;7.60;100.00
57606;BME280;43430;48.204;11.556;2023-03-14T06:42:53;94309.69;;;7.64;100.00
57606;BME280;43430;48.204;11.556;2023-03-14T06:45:18;94312.38;;;7.69;100.00
57606;BME280;43430;48.204;11.556;2023-03-14T06:47:44;94295.38;;;7.77;100.00
57606;BME280;43430;48.204;11.556;2023-03-14T06:50:10;94293.31;;;7.79;100.00
57606;BME280;43430;48.204;11.556;2023-03-14T06:52:36;94294.41;;;7.83;100.00
57606;BME280;43430;48.204;11.556;2023-03-14T06:55:02;94285.75;;;7.82;100.00
57606;BME280;43430;48.204;11.556;2023-03-14T06:57:27;94304.72;;;7.90;100.00
57606;BME280;43430;48.204;11.556;2023-03-14T06:59:53;94308.94;;;7.91;100.00
57606;BME280;43430;48.204;11.556;2023-03-14T07:02:18;94317.59;;;7.91;100.00
57606;BME280;43430;48.204;11.556;2023-03-14T07:04:43;94318.16;;;7.93;100.00
57606;BME280;43430;48.204;11.556;2023-03-14T07:07:09;94323.41;;;7.93;100.00
57606;BME280;43430;48.204;11.556;2023-03-14T07:09:35;94322.44;;;7.99;100.00
57606;BME280;43430;48.204;11.556;2023-03-14T07:12:01;94334.31;;;8.07;100.00
57606;BME280;43430;48.204;11.556;2023-03-14T07:14:26;94333.25;;;8.08;100.00
57606;BME280;43430;48.204;11.556;2023-03-14T07:16:52;94328.63;;;8.15;100.00
57606;BME280;43430;48.204;11.556;2023-03-14T07:19:17;94325.25;;;8.20;100.00
57606;BME280;43430;48.204;11.556;2023-03-14T07:21:43;94317.28;;;8.09;100.00
57606;BME280;43430;48.204;11.556;2023-03-14T07:24:08;94314.59;;;8.04;100.00
57606;BME280;43430;48.204;11.556;2023-03-14T07:26:34;94318.00;;;8.05;100.00
57606;BME280;43430;48.204;11.556;2023-03-14T07:28:59;94319.31;;;8.02;100.00
57606;BME280;43430;48.204;11.556;2023-03-14T07:31:24;94322.22;;;8.06;100.00
57606;BME280;43430;48.204;11.556;2023-03-14T07:33:50;94324.00;;;8.00;100.00
57606;BME280;43430;48.204;11.556;2023-03-14T07:36:16;94327.72;;;8.04;100.00
57606;BME280;43430;48.204;11.556;2023-03-14T07:38:42;94317.97;;;8.00;100.00
57606;BME280;43430;48.204;11.556;2023-03-14T07:41:08;94313.00;;;8.03;100.00
57606;BME280;43430;48.204;11.556;2023-03-14T07:43:33;94317.19;;;7.99;100.00
57606;BME280;43430;48.204;11.556;2023-03-14T07:45:59;94314.56;;;7.99;100.00
57606;BME280;43430;48.204;11.556;2023-03-14T07:48:25;94315.19;;;8.12;100.00
57606;BME280;43430;48.204;11.556;2023-03-14T07:50:53;94294.78;;;8.19;100.00
57606;BME280;43430;48.204;11.556;2023-03-14T07:53:18;94294.06;;;8.23;100.00
57606;BME280;43430;48.204;11.556;2023-03-14T07:55:44;94297.28;;;8.30;100.00
57606;BME280;43430;48.204;11.556;2023-03-14T07:58:10;94291.03;;;8.37;100.00
57606;BME280;43430;48.204;11.556;2023-03-14T08:00:35;94290.56;;;8.40;100.00
57606;BME280;43430;48.204;11.556;2023-03-14T08:03:01;94298.22;;;8.46;100.00
57606;BME280;43430;48.204;11.556;2023-03-14T08:05:27;94294.22;;;8.39;100.00
57606;BME280;43430;48.204;11.556;2023-03-14T08:07:52;94292.19;;;8.46;100.00
57606;BME280;43430;48.204;11.556;2023-03-14T08:10:17;94293.81;;;8.52;100.00
57606;BME280;43430;48.204;11.556;2023-03-14T08:12:46;94288.66;;;8.62;100.00
57606;BME280;43430;48.204;11.556;2023-03-14T08:15:11;94296.53;;;8.62;100.00
57606;BME280;43430;48.204;11.556;2023-03-14T08:17:36;94296.59;;;8.67;100.00
57606;BME280;43430;48.204;11.556;2023-03-14T08:20:02;94291.66;;;8.76;100.00
57606;BME280;43430;48.204;11.556;2023-03-14T08:22:31;94282.72;;;8.77;100.00
57606;BME280;43430;48.204;11.556;2023-03-14T08:24:57;94285.41;;;8.87;100.00
57606;BME280;43430;48.204;11.556;2023-03-14T08:27:22;94283.63;;;8.93;100.00
57606;BME280;43430;48.204;11.556;2023-03-14T08:29:47;94283.00;;;8.80;100.00
57606;BME280;43430;48.204;11.556;2023-03-14T08:32:13;94290.88;;;8.80;100.00
57606;BME280;43430;48.204;11.556;2023-03-14T08:34:38;94287.31;;;8.92;100.00
57606;BME280;43430;48.204;11.556;2023-03-14T08:37:05;94288.59;;;8.89;100.00
57606;BME280;43430;48.204;11.556;2023-03-14T08:39:30;94285.34;;;8.77;100.00
57606;BME280;43430;48.204;11.556;2023-03-14T08:41:56;94293.00;;;8.84;100.00
57606;BME280;43430;48.204;11.556;2023-03-14T08:44:21;94299.94;;;8.95;100.00
57606;BME280;43430;48.204;11.556;2023-03-14T08:46:46;94298.19;;;9.06;100.00
57606;BME280;43430;48.204;11.556;2023-03-14T08:49:12;94301.38;;;9.13;100.00
57606;BME280;43430;48.204;11.556;2023-03-14T08:51:38;94302.94;;;9.09;100.00
57606;BME280;43430;48.204;11.556;2023-03-14T08:54:03;94304.50;;;9.10;100.00
57606;BME280;43430;48.204;11.556;2023-03-14T08:56:28;94308.75;;;9.16;100.00
57606;BME280;43430;48.204;11.556;2023-03-14T08:58:54;94308.47;;;9.12;100.00
57606;BME280;43430;48.204;11.556;2023-03-14T09:01:19;94311.91;;;9.18;100.00
57606;BME280;43430;48.204;11.556;2023-03-14T09:03:45;94308.28;;;9.24;100.00
57606;BME280;43430;48.204;11.556;2023-03-14T09:06:13;94309.84;;;9.25;100.00
57606;BME280;43430;48.204;11.556;2023-03-14T09:08:38;94310.91;;;9.24;100.00
57606;BME280;43430;48.204;11.556;2023-03-14T09:11:07;94306.78;;;9.38;100.00
57606;BME280;43430;48.204;11.556;2023-03-14T09:13:32;94309.00;;;9.57;100.00
57606;BME280;43430;48.204;11.556;2023-03-14T09:15:57;94307.38;;;9.56;100.00
57606;BME280;43430;48.204;11.556;2023-03-14T09:18:23;94294.22;;;9.56;100.00
57606;BME280;43430;48.204;11.556;2023-03-14T09:20:49;94290.03;;;9.55;100.00
57606;BME280;43430;48.204;11.556;2023-03-14T09:23:15;94292.59;;;9.44;100.00
57606;BME280;43430;48.204;11.556;2023-03-14T09:25:40;94297.09;;;9.49;100.00
57606;BME280;43430;48.204;11.556;2023-03-14T09:28:06;94300.03;;;9.58;100.00
57606;BME280;43430;48.204;11.556;2023-03-14T09:30:31;94295.31;;;9.60;100.00
57606;BME280;43430;48.204;11.556;2023-03-14T09:32:57;94286.84;;;9.47;100.00
57606;BME280;43430;48.204;11.556;2023-03-14T09:35:24;94287.69;;;9.63;100.00
57606;BME280;43430;48.204;11.556;2023-03-14T09:37:49;94284.75;;;9.55;100.00
57606;BME280;43430;48.204;11.556;2023-03-14T09:40:16;94286.16;;;9.67;100.00
57606;BME280;43430;48.204;11.556;2023-03-14T09:42:42;94280.06;;;9.62;100.00
57606;BME280;43430;48.204;11.556;2023-03-14T09:45:38;94269.56;;;9.72;100.00
57606;BME280;43430;48.204;11.556;2023-03-14T09:48:08;94273.78;;;9.68;100.00
57606;BME280;43430;48.204;11.556;2023-03-14T09:50:40;94274.56;;;9.68;100.00
57606;BME280;43430;48.204;11.556;2023-03-14T09:53:18;94275.06;;;9.65;100.00
57606;BME280;43430;48.204;11.556;2023-03-14T09:55:45;94276.16;;;9.74;100.00
57606;BME280;43430;48.204;11.556;2023-03-14T09:58:13;94268.78;;;9.71;100.00
57606;BME280;43430;48.204;11.556;2023-03-14T10:00:41;94270.16;;;9.84;100.00
57606;BME280;43430;48.204;11.556;2023-03-14T10:03:31;94264.09;;;9.89;100.00
57606;BME280;43430;48.204;11.556;2023-03-14T10:05:57;94252.22;;;9.71;100.00
57606;BME280;43430;48.204;11.556;2023-03-14T10:08:23;94255.91;;;9.75;100.00
57606;BME280;43430;48.204;11.556;2023-03-14T10:10:49;94257.53;;;9.91;100.00
57606;BME280;43430;48.204;11.556;2023-03-14T10:13:16;94260.72;;;9.98;100.00
57606;BME280;43430;48.204;11.556;2023-03-14T10:15:53;94257.59;;;10.22;100.00
57606;BME280;43430;48.204;11.556;2023-03-14T10:18:20;94254.47;;;10.35;100.00
57606;BME280;43430;48.204;11.556;2023-03-14T10:20:48;94252.34;;;10.32;100.00
57606;BME280;43430;48.204;11.556;2023-03-14T10:25:43;94242.38;;;10.39;100.00
57606;BME280;43430;48.204;11.556;2023-03-14T10:28:25;94241.56;;;10.64;100.00
57606;BME280;43430;48.204;11.556;2023-03-14T10:30:50;94233.63;;;11.00;100.00
57606;BME280;43430;48.204;11.556;2023-03-14T10:33:28;94230.47;;;10.98;100.00
57606;BME280;43430;48.204;11.556;2023-03-14T10:35:56;94227.59;;;10.95;100.00
57606;BME280;43430;48.204;11.556;2023-03-14T10:38:25;94236.56;;;10.68;100.00
57606;BME280;43430;48.204;11.556;2023-03-14T10:40:52;94237.09;;;10.75;100.00
57606;BME280;43430;48.204;11.556;2023-03-14T10:43:22;94238.41;;;10.88;100.00
57606;BME280;43430;48.204;11.556;2023-03-14T10:46:00;94236.56;;;10.78;100.00
57606;BME280;43430;48.204;11.556;2023-03-14T10:48:34;94238.94;;;10.64;100.00
57606;BME280;43430;48.204;11.556;2023-03-14T10:53:49;94244.19;;;10.80;100.00
57606;BME280;43430;48.204;11.556;2023-03-14T10:56:22;94242.63;;;10.74;100.00
57606;BME280;43430;48.204;11.556;2023-03-14T10:58:50;94239.19;;;10.78;100.00
57606;BME280;43430;48.204;11.556;2023-03-14T11:01:40;94233.66;;;10.80;100.00
57606;BME280;43430;48.204;11.556;2023-03-14T11:07:07;94243.69;;;10.88;100.00
57606;BME280;43430;48.204;11.556;2023-03-14T11:10:01;94246.53;;;10.97;100.00
57606;BME280;43430;48.204;11.556;2023-03-14T11:21:46;94227.41;;;11.46;100.00
57606;BME280;43430;48.204;11.556;2023-03-14T11:24:41;94220.56;;;11.50;100.00
57606;BME280;43430;48.204;11.556;2023-03-14T11:27:21;94215.28;;;11.50;100.00
57606;BME280;43430;48.204;11.556;2023-03-14T11:32:29;94214.13;;;11.66;100.00
57606;BME280;43430;48.204;11.556;2023-03-14T11:34:58;94220.44;;;11.75;100.00
57606;BME280;43430;48.204;11.556;2023-03-14T11:37:34;94221.03;;;11.67;100.00
57606;BME280;43430;48.204;11.556;2023-03-14T11:40:22;94204.59;;;11.80;100.00
57606;BME280;43430;48.204;11.556;2023-03-14T11:43:41;94201.38;;;11.83;100.00
57606;BME280;43430;48.204;11.556;2023-03-14T11:45:48;94203.00;;;11.79;100.00
57606;BME280;43430;48.204;11.556;2023-03-14T11:51:02;94186.94;;;11.71;100.00
57606;BME280;43430;48.204;11.556;2023-03-14T11:53:59;94185.63;;;11.68;100.00
57606;BME280;43430;48.204;11.556;2023-03-14T11:56:46;94186.22;;;11.60;100.00
57606;BME280;43430;48.204;11.556;2023-03-14T11:59:21;94198.88;;;11.58;100.00
57606;BME280;43430;48.204;11.556;2023-03-14T12:02:01;94194.69;;;11.52;100.00
57606;BME280;43430;48.204;11.556;2023-03-14T12:04:48;94190.47;;;11.51;100.00
57606;BME280;43430;48.204;11.556;2023-03-14T12:07:21;94192.31;;;11.50;100.00
57606;BME280;43430;48.204;11.556;2023-03-14T12:09:50;94199.47;;;11.45;100.00
57606;BME280;43430;48.204;11.556;2023-03-14T12:12:22;94194.22;;;11.39;100.00
57606;BME280;43430;48.204;11.556;2023-03-14T12:14:57;94198.97;;;11.37;100.00
57606;BME280;43430;48.204;11.556;2023-03-14T12:17:55;94192.13;;;11.36;100.00
57606;BME280;43430;48.204;11.556;2023-03-14T12:20:24;94197.34;;;11.41;100.00
57606;BME280;43430;48.204;11.556;2023-03-14T12:22:55;94193.16;;;11.40;100.00
57606;BME280;43430;48.204;11.556;2023-03-14T12:25:24;94192.88;;;11.42;100.00
57606;BME280;43430;48.204;11.556;2023-03-14T12:38:03;94200.06;;;11.21;100.00
57606;BME280;43430;48.204;11.556;2023-03-14T12:40:33;94195.03;;;11.30;100.00
57606;BME280;43430;48.204;11.556;2023-03-14T12:43:01;94205.59;;;11.25;100.00
57606;BME280;43430;48.204;11.556;2023-03-14T12:45:30;94193.97;;;11.36;100.00
57606;BME280;43430;48.204;11.556;2023-03-14T12:48:15;94185.59;;;11.73;100.00
57606;BME280;43430;48.204;11.556;2023-03-14T12:50:56;94194.31;;;11.74;100.00
57606;BME280;43430;48.204;11.556;2023-03-14T12:56:31;94206.84;;;11.53;100.00
57606;BME280;43430;48.204;11.556;2023-03-14T13:01:35;94212.19;;;11.32;100.00
57606;BME280;43430;48.204;11.556;2023-03-14T13:04:09;94205.88;;;11.18;100.00
57606;BME280;43430;48.204;11.556;2023-03-14T13:06:55;94209.34;;;11.08;100.00
57606;BME280;43430;48.204;11.556;2023-03-14T13:12:09;94236.00;;;10.86;100.00
57606;BME280;43430;48.204;11.556;2023-03-14T13:14:40;94236.56;;;10.78;100.00
57606;BME280;43430;48.204;11.556;2023-03-14T13:17:10;94227.59;;;10.74;100.00
57606;BME280;43430;48.204;11.556;2023-03-14T13:19:37;94225.75;;;10.69;100.00
57606;BME280;43430;48.204;11.556;2023-03-14T13:22:14;94237.63;;;10.72;100.00
57606;BME280;43430;48.204;11.556;2023-03-14T13:24:41;94240.25;;;10.72;100.00
57606;BME280;43430;48.204;11.556;2023-03-14T13:27:19;94244.75;;;10.72;100.00
57606;BME280;43430;48.204;11.556;2023-03-14T13:29:48;94255.03;;;10.58;100.00
57606;BME280;43430;48.204;11.556;2023-03-14T13:32:19;94262.13;;;10.52;100.00
57606;BME280;43430;48.204;11.556;2023-03-14T13:34:45;94256.59;;;10.33;100.00
57606;BME280;43430;48.204;11.556;2023-03-14T13:37:23;94279.19;;;10.19;100.00
57606;BME280;43430;48.204;11.556;2023-03-14T13:39:55;94287.06;;;10.09;100.00